createdAt,value
2022-09-18T00:01:42.596Z,23.15
2022-09-18T00:04:17.233Z,20.85
2022-09-18T00:06:46.038Z,21.02
2022-09-18T00:09:15.996Z,17.58
2022-09-18T00:11:47.407Z,17.80
2022-09-18T00:14:21.340Z,19.25
2022-09-18T00:16:50.406Z,18.27
2022-09-18T00:19:18.700Z,20.38
2022-09-18T00:21:50.792Z,17.15
2022-09-18T00:24:19.676Z,21.58
2022-09-18T00:26:48.043Z,16.90
2022-09-18T00:29:17.937Z,17.92
2022-09-18T00:31:47.029Z,19.65
2022-09-18T00:34:16.684Z,16.45
2022-09-18T00:36:44.912Z,16.95
2022-09-18T00:39:13.171Z,18.05
2022-09-18T00:41:43.088Z,16.45
2022-09-18T00:44:32.893Z,18.67
2022-09-18T00:47:26.333Z,17.52
2022-09-18T00:50:05.150Z,16.55
2022-09-18T00:53:02.610Z,18.48
2022-09-18T00:55:38.497Z,20.08
2022-09-18T00:58:07.249Z,18.42
2022-09-18T01:00:38.357Z,18.55
2022-09-18T01:03:06.726Z,20.90
2022-09-18T01:06:16.802Z,18.90
2022-09-18T01:09:25.201Z,19.48
2022-09-18T01:12:29.382Z,17.93
2022-09-18T01:15:25.275Z,17.80
2022-09-18T01:18:22.132Z,16.95
2022-09-18T01:21:17.945Z,18.58
2022-09-18T01:24:29.103Z,18.75
2022-09-18T01:27:03.640Z,18.92
2022-09-18T01:30:00.753Z,17.52
2022-09-18T01:32:49.930Z,17.38
2022-09-18T01:35:41.072Z,17.52
2022-09-18T01:38:21.424Z,18.55
2022-09-18T01:40:56.683Z,19.13
2022-09-18T01:43:29.657Z,16.88
2022-09-18T01:46:10.161Z,14.80
2022-09-18T01:48:51.637Z,15.77
2022-09-18T01:51:36.202Z,16.63
2022-09-18T01:54:20.491Z,15.52
2022-09-18T01:57:14.525Z,16.05
2022-09-18T02:00:10.771Z,18.85
2022-09-18T02:03:05.587Z,16.17
2022-09-18T02:06:06.646Z,15.52
2022-09-18T02:08:49.517Z,17.92
2022-09-18T02:11:21.772Z,17.33
2022-09-18T02:14:05.717Z,15.07
2022-09-18T02:17:09.476Z,18.05
2022-09-18T02:19:47.541Z,17.08
2022-09-18T02:22:20.127Z,14.70
2022-09-18T02:24:51.954Z,16.70
2022-09-18T02:27:21.958Z,12.95
2022-09-18T02:29:50.005Z,17.35
2022-09-18T02:32:18.305Z,16.38
2022-09-18T02:34:46.639Z,14.45
2022-09-18T02:37:31.894Z,16.33
2022-09-18T02:40:27.844Z,13.15
2022-09-18T02:43:16.941Z,15.82
2022-09-18T02:46:01.360Z,14.52
2022-09-18T02:48:56.183Z,14.80
2022-09-18T02:51:55.895Z,18.30
2022-09-18T02:54:38.495Z,16.27
2022-09-18T02:57:21.050Z,15.95
2022-09-18T02:59:54.931Z,14.40
2022-09-18T03:02:23.745Z,16.55
2022-09-18T03:04:52.244Z,13.57
2022-09-18T03:07:40.823Z,13.85
2022-09-18T03:10:11.698Z,16.67
2022-09-18T03:12:39.598Z,12.53
2022-09-18T03:15:09.255Z,19.42
2022-09-18T03:17:37.331Z,14.32
2022-09-18T03:20:08.944Z,14.77
2022-09-18T03:22:36.990Z,15.38
2022-09-18T03:25:05.379Z,17.65
2022-09-18T03:27:34.765Z,16.13
2022-09-18T03:30:04.350Z,16.77
2022-09-18T03:32:34.703Z,17.45
2022-09-18T03:35:02.626Z,15.45
2022-09-18T03:37:31.177Z,16.38
2022-09-18T03:40:00.902Z,19.42
2022-09-18T03:42:29.311Z,13.32
2022-09-18T03:45:00.822Z,13.77
2022-09-18T03:47:31.892Z,13.93
2022-09-18T03:50:03.204Z,14.18
2022-09-18T03:52:34.641Z,15.18
2022-09-18T03:55:14.042Z,19.65
2022-09-18T03:58:09.072Z,16.40
2022-09-18T04:01:07.130Z,13.15
2022-09-18T04:03:53.635Z,18.00
2022-09-18T04:06:52.641Z,16.45
2022-09-18T04:09:40.925Z,15.57
2022-09-18T04:12:08.992Z,17.75
2022-09-18T04:14:37.151Z,17.73
2022-09-18T04:17:05.036Z,21.73
2022-09-18T04:19:33.152Z,19.92
2022-09-18T04:22:01.023Z,20.45
2022-09-18T04:24:29.171Z,19.08
2022-09-18T04:26:57.325Z,17.13
2022-09-18T04:29:27.815Z,21.17
2022-09-18T04:31:55.742Z,20.42
2022-09-18T04:34:26.364Z,20.15
2022-09-18T04:36:54.515Z,20.13
2022-09-18T04:39:22.805Z,21.10
2022-09-18T04:41:51.744Z,20.05
2022-09-18T04:44:20.678Z,19.95
2022-09-18T04:46:50.129Z,24.25
2022-09-18T04:49:19.057Z,24.10
2022-09-18T04:51:47.329Z,19.95
2022-09-18T04:54:17.014Z,21.98
2022-09-18T04:56:45.836Z,22.85
2022-09-18T04:59:14.236Z,24.92
2022-09-18T05:01:46.812Z,19.98
2022-09-18T05:04:16.823Z,20.65
2022-09-18T05:06:55.315Z,18.35
2022-09-18T05:09:24.043Z,18.98
2022-09-18T05:11:51.935Z,19.90
2022-09-18T05:14:20.797Z,13.80
2022-09-18T05:16:52.605Z,15.32
2022-09-18T05:19:27.351Z,16.27
2022-09-18T05:22:02.090Z,12.38
2022-09-18T05:24:32.834Z,11.13
2022-09-18T05:27:01.314Z,11.55
2022-09-18T05:29:30.440Z,10.48
2022-09-18T05:32:07.466Z,10.32
2022-09-18T05:34:37.024Z,8.48
2022-09-18T05:37:05.537Z,11.02
2022-09-18T05:39:33.538Z,7.05
2022-09-18T05:42:04.061Z,6.78
2022-09-18T05:44:32.108Z,9.50
2022-09-18T05:47:00.292Z,10.60
2022-09-18T05:49:29.201Z,9.85
2022-09-18T05:51:58.891Z,10.13
2022-09-18T05:54:31.295Z,9.68
2022-09-18T05:56:59.362Z,15.13
2022-09-18T05:59:27.427Z,16.33
2022-09-18T06:01:58.048Z,11.32
2022-09-18T06:04:44.113Z,14.98
2022-09-18T06:07:15.877Z,17.05
2022-09-18T06:09:44.856Z,19.50
2022-09-18T06:12:13.396Z,18.27
2022-09-18T06:14:41.372Z,18.90
2022-09-18T06:17:09.217Z,18.38
2022-09-18T06:19:37.577Z,15.50
2022-09-18T06:22:05.891Z,19.25
2022-09-18T06:24:35.662Z,18.08
2022-09-18T06:27:12.448Z,19.50
2022-09-18T06:29:40.985Z,19.73
2022-09-18T06:32:17.356Z,20.95
2022-09-18T06:34:45.977Z,18.02
2022-09-18T06:37:15.940Z,22.83
2022-09-18T06:39:44.211Z,20.10
2022-09-18T06:42:26.156Z,23.77
2022-09-18T06:45:13.120Z,22.65
2022-09-18T06:47:41.835Z,23.13
2022-09-18T06:50:10.281Z,25.02
2022-09-18T06:52:40.010Z,24.00
2022-09-18T06:55:08.736Z,19.63
2022-09-18T06:57:37.792Z,19.67
2022-09-18T07:00:07.265Z,21.08
2022-09-18T07:02:39.652Z,21.58
2022-09-18T07:05:46.568Z,23.58
2022-09-18T07:08:28.641Z,17.10
2022-09-18T07:11:05.434Z,20.05
2022-09-18T07:13:37.499Z,15.95
2022-09-18T07:16:07.532Z,19.05
2022-09-18T07:18:35.665Z,20.02
2022-09-18T07:21:05.292Z,17.85
2022-09-18T07:23:40.150Z,23.35
2022-09-18T07:26:08.189Z,16.38
2022-09-18T07:28:37.334Z,22.98
2022-09-18T07:31:17.844Z,19.35
2022-09-18T07:33:54.626Z,11.73
2022-09-18T07:36:29.447Z,15.88
2022-09-18T07:38:58.193Z,16.75
2022-09-18T07:41:33.712Z,18.20
2022-09-18T07:44:03.547Z,16.92
2022-09-18T07:46:33.945Z,20.45
2022-09-18T07:49:05.664Z,17.20
2022-09-18T07:51:33.643Z,23.65
2022-09-18T07:54:01.717Z,18.95
2022-09-18T07:56:50.204Z,16.35
2022-09-18T07:59:22.100Z,17.02
2022-09-18T08:01:57.175Z,20.90
2022-09-18T08:04:30.343Z,29.02
2022-09-18T08:07:21.957Z,40.50
2022-09-18T08:09:53.185Z,41.08
2022-09-18T08:12:47.307Z,53.20
2022-09-18T08:15:26.800Z,24.88
2022-09-18T08:18:12.843Z,32.75
2022-09-18T08:20:59.447Z,29.35
2022-09-18T08:23:39.005Z,17.92
2022-09-18T08:26:08.961Z,14.32
2022-09-18T08:28:37.611Z,14.55
2022-09-18T08:31:07.317Z,11.88
2022-09-18T08:33:35.357Z,7.25
2022-09-18T08:36:03.644Z,5.50
2022-09-18T08:38:37.934Z,6.75
2022-09-18T08:42:26.192Z,8.77
2022-09-18T08:45:05.746Z,4.53
2022-09-18T08:47:50.581Z,3.05
2022-09-18T08:50:37.616Z,6.40
2022-09-18T08:53:29.941Z,5.90
2022-09-18T08:56:21.726Z,6.97
2022-09-18T08:59:38.800Z,2.55
2022-09-18T09:02:16.060Z,6.13
2022-09-18T09:04:45.171Z,5.03
2022-09-18T09:07:47.230Z,7.05
2022-09-18T09:10:40.968Z,4.90
2022-09-18T09:13:56.731Z,8.43
2022-09-18T09:17:26.265Z,7.80
2022-09-18T09:20:11.392Z,6.43
2022-09-18T09:23:16.044Z,2.35
2022-09-18T09:26:10.180Z,2.38
2022-09-18T09:29:02.613Z,4.55
2022-09-18T09:32:05.290Z,7.25
2022-09-18T09:35:30.431Z,6.40
2022-09-18T09:38:44.650Z,5.45
2022-09-18T09:41:37.949Z,4.75
2022-09-18T09:44:35.826Z,6.60
2022-09-18T09:47:33.966Z,4.43
2022-09-18T09:50:57.011Z,5.93
2022-09-18T09:53:27.042Z,6.53
2022-09-18T09:56:29.391Z,4.47
2022-09-18T09:59:37.931Z,6.10
2022-09-18T10:02:52.397Z,5.53
2022-09-18T10:05:43.604Z,5.72
2022-09-18T10:11:17.137Z,5.18
2022-09-18T10:14:09.796Z,3.55
2022-09-18T10:16:46.271Z,7.43
2022-09-18T10:19:19.318Z,4.68
2022-09-18T10:21:51.679Z,3.63
2022-09-18T10:24:50.743Z,4.65
2022-09-18T10:27:20.341Z,6.05
2022-09-18T10:29:48.527Z,8.10
2022-09-18T10:32:43.706Z,5.85
2022-09-18T10:35:44.840Z,5.20
2022-09-18T10:38:34.687Z,8.05
2022-09-18T10:41:28.045Z,5.18
2022-09-18T10:44:04.745Z,8.93
2022-09-18T10:46:36.582Z,10.95
2022-09-18T10:49:41.087Z,7.93
2022-09-18T10:52:40.856Z,7.35
2022-09-18T10:55:27.111Z,8.80
2022-09-18T10:58:16.578Z,6.43
2022-09-18T11:01:03.046Z,7.30
2022-09-18T11:04:04.984Z,10.93
2022-09-18T11:06:38.754Z,14.10
2022-09-18T11:09:33.422Z,6.43
2022-09-18T11:12:02.943Z,3.30
2022-09-18T11:14:47.075Z,8.05
2022-09-18T11:17:33.941Z,5.03
2022-09-18T11:20:06.943Z,9.40
2022-09-18T11:22:53.744Z,9.27
2022-09-18T11:25:32.370Z,9.05
2022-09-18T11:28:32.481Z,12.52
2022-09-18T11:31:13.555Z,5.30
2022-09-18T11:33:55.339Z,6.13
2022-09-18T11:36:32.951Z,6.18
2022-09-18T11:39:18.680Z,8.05
2022-09-18T11:41:51.909Z,7.07
2022-09-18T11:44:29.440Z,5.25
2022-09-18T11:47:14.995Z,4.47
2022-09-18T11:50:18.050Z,4.32
2022-09-18T11:52:59.576Z,4.57
2022-09-18T11:55:56.044Z,5.13
2022-09-18T11:58:35.574Z,6.90
2022-09-18T12:01:33.729Z,9.10
2022-09-18T12:04:52.769Z,4.60
2022-09-18T12:07:46.202Z,4.68
2022-09-18T12:10:34.357Z,5.53
2022-09-18T12:13:45.670Z,6.70
2022-09-18T12:16:56.280Z,5.90
2022-09-18T12:19:48.481Z,2.67
2022-09-18T12:23:00.803Z,5.03
2022-09-18T12:26:30.670Z,5.28
2022-09-18T12:29:36.275Z,4.07
2022-09-18T12:32:22.743Z,6.25
2022-09-18T12:35:51.215Z,4.75
2022-09-18T12:38:40.870Z,4.22
2022-09-18T12:41:52.628Z,5.47
2022-09-18T12:45:21.020Z,3.92
2022-09-18T12:48:01.646Z,6.93
2022-09-18T12:50:50.559Z,4.47
2022-09-18T12:53:56.698Z,3.63
2022-09-18T12:56:43.814Z,7.10
2022-09-18T12:59:54.471Z,8.93
2022-09-18T13:02:47.103Z,14.52
2022-09-18T13:05:39.407Z,14.93
2022-09-18T13:08:58.713Z,8.63
2022-09-18T13:11:58.816Z,7.00
2022-09-18T13:14:35.055Z,6.90
2022-09-18T13:17:18.587Z,6.47
2022-09-18T13:19:59.952Z,6.25
2022-09-18T13:22:35.857Z,6.50
2022-09-18T13:25:20.397Z,3.78
2022-09-18T13:27:49.646Z,6.25
2022-09-18T13:30:32.422Z,13.63
2022-09-18T13:33:02.811Z,6.53
2022-09-18T13:35:37.310Z,5.00
2022-09-18T13:38:05.158Z,9.02
2022-09-18T13:40:42.062Z,5.65
2022-09-18T13:43:20.657Z,2.88
2022-09-18T13:45:49.484Z,4.60
2022-09-18T13:48:34.986Z,7.00
2022-09-18T13:51:07.369Z,7.78
2022-09-18T13:53:38.854Z,5.50
2022-09-18T13:56:13.380Z,2.50
2022-09-18T13:58:53.144Z,2.40
2022-09-18T14:01:43.139Z,3.50
2022-09-18T14:04:39.173Z,3.25
2022-09-18T14:07:19.883Z,2.85
2022-09-18T14:10:06.064Z,5.53
2022-09-18T14:12:36.023Z,3.13
2022-09-18T14:15:25.095Z,3.22
2022-09-18T14:18:22.437Z,2.75
2022-09-18T14:20:55.219Z,3.92
2022-09-18T14:23:38.825Z,2.45
2022-09-18T14:26:37.428Z,3.80
2022-09-18T14:29:17.424Z,3.40
2022-09-18T14:31:47.316Z,4.85
2022-09-18T14:34:34.081Z,4.55
2022-09-18T14:37:29.221Z,4.95
2022-09-18T14:39:59.197Z,3.03
2022-09-18T14:42:36.811Z,12.38
2022-09-18T14:45:14.217Z,33.58
2022-09-18T14:47:45.686Z,32.85
2022-09-18T14:50:35.135Z,3.67
2022-09-18T14:53:25.029Z,4.95
2022-09-18T14:56:08.126Z,5.07
2022-09-18T14:58:43.691Z,3.50
2022-09-18T15:01:33.886Z,4.38
2022-09-18T15:04:05.091Z,4.05
2022-09-18T15:06:50.511Z,3.47
2022-09-18T15:09:28.885Z,6.30
2022-09-18T15:12:04.787Z,3.15
2022-09-18T15:14:46.871Z,5.18
2022-09-18T15:17:28.642Z,3.42
2022-09-18T15:19:59.889Z,4.10
2022-09-18T15:22:30.441Z,4.43
2022-09-18T15:25:01.974Z,3.35
2022-09-18T15:30:08.294Z,4.50
2022-09-18T15:32:43.540Z,3.22
2022-09-18T15:35:28.139Z,2.50
2022-09-18T15:38:03.784Z,2.45
2022-09-18T15:40:38.230Z,4.47
2022-09-18T15:43:35.612Z,5.20
2022-09-18T15:46:09.934Z,3.53
2022-09-18T15:48:40.940Z,3.55
2022-09-18T15:51:26.976Z,3.08
2022-09-18T15:54:12.283Z,2.55
2022-09-18T15:56:53.228Z,6.05
2022-09-18T15:59:34.337Z,4.77
2022-09-18T16:02:29.240Z,4.90
2022-09-18T16:05:07.063Z,5.35
2022-09-18T16:07:37.611Z,3.17
2022-09-18T16:10:34.375Z,6.20
2022-09-18T16:13:15.763Z,11.40
2022-09-18T16:15:51.775Z,7.00
2022-09-18T16:18:29.913Z,11.82
2022-09-18T16:21:06.606Z,6.18
2022-09-18T16:23:36.176Z,21.15
2022-09-18T16:26:08.558Z,4.53
2022-09-18T16:28:53.104Z,7.90
2022-09-18T16:31:24.664Z,9.88
2022-09-18T16:34:02.219Z,5.95
2022-09-18T16:36:40.212Z,3.60
2022-09-18T16:39:15.418Z,4.50
2022-09-18T16:41:44.245Z,2.22
2022-09-18T16:44:18.987Z,3.63
2022-09-18T16:46:55.828Z,2.95
2022-09-18T16:49:34.150Z,4.28
2022-09-18T16:52:03.260Z,3.70
2022-09-18T16:54:31.945Z,2.72
2022-09-18T16:57:10.345Z,3.90
2022-09-18T16:59:42.359Z,6.55
2022-09-18T17:02:17.201Z,2.08
2022-09-18T17:04:45.166Z,1.88
2022-09-18T17:07:13.372Z,2.70
2022-09-18T17:09:41.387Z,7.18
2022-09-18T17:12:09.761Z,4.85
2022-09-18T17:14:37.670Z,3.72
2022-09-18T17:17:06.567Z,4.10
2022-09-18T17:19:35.274Z,4.72
2022-09-18T17:22:03.329Z,3.83
2022-09-18T17:24:31.371Z,5.53
2022-09-18T17:26:59.499Z,5.60
2022-09-18T17:29:27.809Z,6.95
2022-09-18T17:31:59.135Z,6.97
2022-09-18T17:34:27.228Z,5.22
2022-09-18T17:36:56.101Z,7.57
2022-09-18T17:41:55.837Z,5.95
2022-09-18T17:44:24.689Z,5.15
2022-09-18T17:46:54.192Z,7.63
2022-09-18T17:49:22.173Z,6.70
2022-09-18T17:51:50.103Z,34.50
2022-09-18T17:54:18.417Z,4.97
2022-09-18T17:56:47.875Z,6.57
2022-09-18T17:59:15.943Z,7.10
2022-09-18T18:01:46.669Z,8.73
2022-09-18T18:04:15.767Z,4.27
2022-09-18T18:06:46.614Z,4.28
2022-09-18T18:09:15.596Z,2.38
2022-09-18T18:11:46.506Z,4.22
2022-09-18T18:14:14.855Z,2.47
2022-09-18T18:16:43.153Z,5.63
2022-09-18T18:19:13.049Z,4.38
2022-09-18T18:21:43.057Z,4.28
2022-09-18T18:24:15.638Z,3.03
2022-09-18T18:26:46.086Z,5.38
2022-09-18T18:29:18.577Z,3.60
2022-09-18T18:31:49.483Z,5.38
2022-09-18T18:34:21.600Z,2.33
2022-09-18T18:36:50.706Z,6.53
2022-09-18T18:39:20.242Z,5.15
2022-09-18T18:41:48.824Z,3.95
2022-09-18T18:44:17.470Z,6.47
2022-09-18T18:46:45.549Z,5.38
2022-09-18T18:49:19.779Z,4.13
2022-09-18T18:51:48.844Z,2.90
2022-09-18T18:54:20.475Z,4.05
2022-09-18T18:59:20.007Z,5.50
2022-09-18T19:01:48.292Z,5.18
2022-09-18T19:04:21.486Z,8.85
2022-09-18T19:06:50.510Z,5.97
2022-09-18T19:09:29.762Z,8.82
2022-09-18T19:11:58.369Z,5.97
2022-09-18T19:14:36.118Z,7.05
2022-09-18T19:17:05.193Z,6.22
2022-09-18T19:19:33.768Z,7.05
2022-09-18T19:22:02.001Z,5.40
2022-09-18T19:24:30.861Z,6.32
2022-09-18T19:26:59.237Z,4.00
2022-09-18T19:29:28.563Z,5.70
2022-09-18T19:31:57.814Z,4.45
2022-09-18T19:34:26.371Z,9.00
2022-09-18T19:36:54.805Z,3.70
2022-09-18T19:39:24.728Z,4.32
2022-09-18T19:42:03.635Z,4.85
2022-09-18T19:44:56.378Z,4.60
2022-09-18T19:47:46.571Z,4.57
2022-09-18T19:50:34.749Z,4.25
2022-09-18T19:53:03.750Z,6.55
2022-09-18T19:55:31.833Z,5.32
2022-09-18T19:58:01.621Z,4.47
2022-09-18T20:00:32.006Z,5.35
2022-09-18T20:03:01.806Z,5.50
2022-09-18T20:05:30.002Z,7.57
2022-09-18T20:07:58.013Z,6.45
2022-09-18T20:10:26.279Z,3.15
2022-09-18T20:12:55.339Z,5.05
2022-09-18T20:15:23.477Z,7.70
2022-09-18T20:17:51.505Z,5.20
2022-09-18T20:20:21.009Z,5.22
2022-09-18T20:22:54.102Z,4.82
2022-09-18T20:25:23.225Z,5.72
2022-09-18T20:27:51.323Z,5.03
2022-09-18T20:30:19.821Z,3.85
2022-09-18T20:32:47.842Z,3.45
2022-09-18T20:35:15.962Z,5.75
2022-09-18T20:37:44.655Z,4.38
2022-09-18T20:40:14.648Z,4.35
2022-09-18T20:42:42.951Z,6.20
2022-09-18T20:45:11.040Z,6.65
2022-09-18T20:47:38.962Z,3.38
2022-09-18T20:50:10.245Z,5.43
2022-09-18T20:52:42.140Z,7.13
2022-09-18T20:55:14.694Z,6.88
2022-09-18T20:57:46.404Z,3.13
2022-09-18T21:00:16.764Z,4.17
2022-09-18T21:02:49.918Z,3.83
2022-09-18T21:05:18.011Z,9.93
2022-09-18T21:07:46.218Z,4.35
2022-09-18T21:10:15.455Z,7.63
2022-09-18T21:12:43.477Z,4.03
2022-09-18T21:15:16.986Z,5.75
2022-09-18T21:17:45.066Z,3.78
2022-09-18T21:20:13.291Z,5.13
2022-09-18T21:23:03.273Z,5.78
2022-09-18T21:25:31.685Z,6.68
2022-09-18T21:27:59.589Z,8.73
2022-09-18T21:30:27.838Z,7.95
2022-09-18T21:32:56.003Z,7.72
2022-09-18T21:35:24.142Z,6.28
2022-09-18T21:37:53.808Z,5.72
2022-09-18T21:40:21.765Z,6.97
2022-09-18T21:42:50.769Z,5.18
2022-09-18T21:45:20.915Z,6.72
2022-09-18T21:47:50.539Z,6.07
2022-09-18T21:50:19.049Z,8.88
2022-09-18T21:52:47.110Z,5.82
2022-09-18T21:55:15.084Z,6.13
2022-09-18T21:57:43.487Z,6.97
2022-09-18T22:00:12.590Z,9.43
2022-09-18T22:02:43.374Z,7.80
2022-09-18T22:05:12.324Z,9.25
2022-09-18T22:07:41.002Z,7.07
2022-09-18T22:10:09.490Z,9.75
2022-09-18T22:12:39.005Z,7.55
2022-09-18T22:15:08.481Z,6.85
2022-09-18T22:17:36.445Z,7.35
2022-09-18T22:20:05.355Z,7.15
2022-09-18T22:22:33.771Z,10.00
2022-09-18T22:25:03.317Z,9.98
2022-09-18T22:27:31.132Z,6.65
2022-09-18T22:29:59.014Z,5.85
2022-09-18T22:32:27.153Z,7.60
2022-09-18T22:34:56.013Z,10.38
2022-09-18T22:37:23.973Z,7.47
2022-09-18T22:39:52.076Z,10.93
2022-09-18T22:42:20.149Z,11.85
2022-09-18T22:44:48.135Z,12.18
2022-09-18T22:47:16.911Z,8.45
2022-09-18T22:49:44.760Z,6.47
2022-09-18T22:52:12.768Z,13.40
2022-09-18T22:54:40.706Z,8.10
2022-09-18T22:57:08.578Z,8.10
2022-09-18T22:59:36.555Z,16.63
2022-09-18T23:02:06.656Z,7.70
2022-09-18T23:04:35.269Z,7.47
2022-09-18T23:07:04.129Z,7.32
2022-09-18T23:09:32.155Z,11.15
2022-09-18T23:12:00.178Z,11.98
2022-09-18T23:14:31.312Z,12.48
2022-09-18T23:17:01.050Z,5.20
2022-09-18T23:19:40.557Z,10.32
2022-09-18T23:22:10.192Z,6.60
2022-09-18T23:24:38.245Z,8.55
2022-09-18T23:27:06.353Z,10.40
2022-09-18T23:29:35.506Z,9.90
2022-09-18T23:32:04.478Z,9.00
2022-09-18T23:34:33.854Z,11.10
2022-09-18T23:37:02.011Z,6.68
2022-09-18T23:39:33.981Z,10.07
2022-09-18T23:42:04.003Z,13.15
2022-09-18T23:44:33.243Z,10.05
2022-09-18T23:47:03.097Z,8.50
2022-09-18T23:49:31.288Z,9.05
2022-09-18T23:51:59.993Z,7.30
2022-09-18T23:54:31.000Z,8.52
2022-09-18T23:56:59.240Z,14.30
2022-09-18T23:59:28.014Z,11.57
